Time;durP1;ratioP1;P1;durP2;ratioP2;P2;SDS_P1;SDS_P2;PMS_P1;PMS_P2;Temp;Humidity;BMP_temperature;BMP_pressure;BME280_temperature;BME280_humidity;BME280_pressure;Samples;Min_cycle;Max_cycle;Signal;HPM_P1;HPM_P2
2021/06/05 00:02:25;;;;;;;10.10;8.60;;;;;;;17.82;61.70;101244.84;1770711;80;26511;-75
2021/06/05 00:04:55;;;;;;;14.50;8.93;;;;;;;17.80;61.94;101236.94;1741663;80;25850;-75
2021/06/05 00:07:23;;;;;;;11.55;10.13;;;;;;;17.80;62.10;101252.36;1753238;80;27449;-75
2021/06/05 00:09:50;;;;;;;11.20;9.05;;;;;;;17.73;62.17;101256.46;1724852;80;25756;-75
2021/06/05 00:12:22;;;;;;;10.98;9.28;;;;;;;17.68;62.27;101265.23;1770498;80;25853;-75
2021/06/05 00:14:49;;;;;;;12.43;9.70;;;;;;;17.63;62.56;101262.37;1738646;80;26422;-75
2021/06/05 00:17:17;;;;;;;12.10;9.38;;;;;;;17.60;62.96;101268.72;1728732;80;25744;-75
2021/06/05 00:19:44;;;;;;;18.42;9.75;;;;;;;17.56;63.14;101257.50;1721373;80;27727;-75
2021/06/05 00:22:12;;;;;;;12.37;8.95;;;;;;;17.60;63.41;101261.95;1773072;80;25995;-75
2021/06/05 00:24:40;;;;;;;15.03;9.38;;;;;;;17.60;63.43;101250.59;1747291;80;25940;-75
2021/06/05 00:27:08;;;;;;;15.00;9.58;;;;;;;17.59;63.94;101247.59;1729713;80;26783;-75
2021/06/05 00:29:35;;;;;;;14.40;9.63;;;;;;;17.58;64.31;101235.08;1773404;80;25904;-75
2021/06/05 00:32:03;;;;;;;14.90;9.45;;;;;;;17.48;64.15;101222.52;1770938;80;28111;-75
2021/06/05 00:34:32;;;;;;;13.03;9.90;;;;;;;17.35;64.60;101208.20;1774259;80;26636;-75
2021/06/05 00:36:59;;;;;;;14.68;10.38;;;;;;;17.21;65.09;101201.20;1702741;79;25933;-75
2021/06/05 00:39:26;;;;;;;10.72;9.25;;;;;;;17.22;65.63;101202.33;1747690;80;26552;-75
2021/06/05 00:41:53;;;;;;;12.80;10.15;;;;;;;17.26;65.82;101196.78;1769318;80;26481;-75
2021/06/05 00:44:20;;;;;;;11.70;10.30;;;;;;;17.25;65.92;101205.12;1725795;80;28316;-74
2021/06/05 00:46:47;;;;;;;11.43;9.90;;;;;;;17.18;66.13;101199.74;1691063;80;25801;-75
2021/06/05 00:49:14;;;;;;;11.20;9.60;;;;;;;17.13;66.33;101210.92;1692871;80;26097;-75
2021/06/05 00:51:50;;;;;;;14.33;9.63;;;;;;;17.15;66.69;101202.87;1714110;81;26516;-75
2021/06/05 00:54:22;;;;;;;13.30;9.88;;;;;;;17.11;66.74;101198.12;1716566;82;25872;-74
2021/06/05 00:56:53;;;;;;;10.67;9.53;;;;;;;17.04;66.66;101195.96;1693511;83;28172;-75
2021/06/05 00:59:22;;;;;;;11.22;10.03;;;;;;;17.02;66.94;101192.13;1716189;82;25869;-75
2021/06/05 01:01:50;;;;;;;15.20;10.38;;;;;;;17.03;67.18;101188.36;1735716;82;25841;-75
2021/06/05 01:04:19;;;;;;;10.95;8.75;;;;;;;17.01;67.18;101189.09;1711217;82;26533;-75
2021/06/05 01:06:53;;;;;;;10.23;8.93;;;;;;;16.93;67.33;101184.77;1681861;83;25724;-75
2021/06/05 01:09:45;;;;;;;15.85;9.98;;;;;;;16.85;67.50;101188.23;1710482;82;27522;-75
2021/06/05 01:12:42;;;;;;;10.38;9.25;;;;;;;16.78;67.77;101190.12;1710611;83;25905;-75
2021/06/05 01:15:18;;;;;;;10.45;8.98;;;;;;;16.70;67.86;101197.92;1707622;82;25859;-75
2021/06/05 01:18:03;;;;;;;14.00;9.00;;;;;;;16.64;67.86;101197.94;1694611;82;26538;-75
2021/06/05 01:21:12;;;;;;;12.88;9.88;;;;;;;16.63;67.93;101195.78;1690439;82;26277;-75
2021/06/05 01:24:13;;;;;;;12.10;9.48;;;;;;;16.64;68.23;101198.78;1716861;83;28457;-75
2021/06/05 01:26:46;;;;;;;16.48;9.83;;;;;;;16.62;68.51;101204.92;1681858;83;26192;-75
2021/06/05 01:29:26;;;;;;;12.50;10.48;;;;;;;16.57;68.77;101210.67;1705412;82;25789;-75
2021/06/05 01:31:58;;;;;;;12.15;10.32;;;;;;;16.52;69.12;101203.19;1681573;84;25890;-75
2021/06/05 01:34:31;;;;;;;14.53;10.35;;;;;;;16.47;69.35;101205.64;1680172;84;25874;-74
2021/06/05 01:37:01;;;;;;;11.68;8.93;;;;;;;16.43;69.59;101190.05;1667334;84;28157;-75
2021/06/05 01:39:33;;;;;;;9.40;8.33;;;;;;;16.39;69.60;101184.75;1649393;84;25874;-75
2021/06/05 01:42:05;;;;;;;8.63;7.05;;;;;;;16.33;69.48;101173.43;1720795;81;26546;-75
2021/06/05 01:44:35;;;;;;;7.65;6.85;;;;;;;16.28;69.52;101174.57;1700540;83;25951;-75
2021/06/05 01:47:04;;;;;;;10.53;7.67;;;;;;;16.23;69.28;101178.45;1688372;83;25835;-74
2021/06/05 01:49:32;;;;;;;8.65;7.47;;;;;;;16.23;69.38;101178.45;1686623;83;27570;-75
2021/06/05 01:52:07;;;;;;;8.78;7.70;;;;;;;16.30;69.52;101179.25;1643855;84;25851;-74
2021/06/05 01:54:52;;;;;;;9.93;8.48;;;;;;;16.35;69.69;101188.41;1719995;83;25931;-75
2021/06/05 01:57:25;;;;;;;10.58;8.68;;;;;;;16.37;69.68;101195.79;1698825;83;26678;-75
2021/06/05 02:00:00;;;;;;;8.80;7.83;;;;;;;16.38;69.84;101189.87;1732966;81;25880;-75
2021/06/05 02:02:29;;;;;;;12.93;8.08;;;;;;;16.38;69.64;101191.22;1733901;81;27554;-75
2021/06/05 02:04:58;;;;;;;12.10;7.80;;;;;;;16.38;69.58;101189.87;1693478;83;27176;-75
2021/06/05 02:07:25;;;;;;;9.48;7.28;;;;;;;16.40;69.67;101191.84;1654463;84;25970;-75
2021/06/05 02:09:53;;;;;;;8.33;7.53;;;;;;;16.42;69.48;101194.65;1687112;83;25946;-74
2021/06/05 02:12:30;;;;;;;8.18;6.75;;;;;;;16.45;69.43;101191.50;1683539;83;25838;-75
2021/06/05 02:15:28;;;;;;;10.23;7.72;;;;;;;16.48;69.46;101199.20;1716677;83;27667;-75
2021/06/05 02:18:01;;;;;;;11.20;7.53;;;;;;;16.50;69.46;101198.51;1669473;83;26038;-75
2021/06/05 02:20:34;;;;;;;10.53;6.92;;;;;;;16.52;69.50;101192.37;1733370;80;25952;-75
2021/06/05 02:23:08;;;;;;;10.85;7.78;;;;;;;16.54;69.96;101184.03;1682493;83;25850;-75
2021/06/05 02:25:35;;;;;;;9.63;7.72;;;;;;;16.57;69.88;101183.08;1738662;80;26055;-75
2021/06/05 02:28:04;;;;;;;11.18;8.30;;;;;;;16.61;69.84;101176.74;1764424;80;27451;-75
2021/06/05 02:30:34;;;;;;;12.05;7.78;;;;;;;16.65;70.03;101173.92;1791025;79;25970;-75
2021/06/05 02:33:05;;;;;;;8.18;7.33;;;;;;;16.65;70.00;101167.16;1715016;80;26567;-75
2021/06/05 02:35:38;;;;;;;10.43;7.87;;;;;;;16.67;70.11;101161.84;1736624;80;25821;-75
2021/06/05 02:38:08;;;;;;;9.80;7.58;;;;;;;16.69;69.98;101161.11;1741486;80;25914;-75
2021/06/05 02:40:39;;;;;;;9.20;7.55;;;;;;;16.71;69.91;101156.31;1761736;79;27422;-75
2021/06/05 02:43:11;;;;;;;8.98;7.37;;;;;;;16.71;69.72;101152.27;1771173;78;25817;-75
2021/06/05 02:45:52;;;;;;;10.28;7.47;;;;;;;16.68;70.04;101151.86;1786798;78;25783;-75
2021/06/05 02:48:21;;;;;;;7.80;6.95;;;;;;;16.66;70.05;101145.81;1792616;78;25811;-75
2021/06/05 02:50:52;;;;;;;10.85;7.25;;;;;;;16.66;70.21;101139.88;1724425;80;25777;-75
2021/06/05 02:53:21;;;;;;;9.20;6.95;;;;;;;16.67;70.24;101129.91;1789014;78;27450;-75
2021/06/05 02:55:49;;;;;;;9.50;7.58;;;;;;;16.67;70.33;101127.20;1769318;78;26424;-75
2021/06/05 02:58:17;;;;;;;11.40;7.45;;;;;;;16.68;70.35;101125.63;1785871;79;25843;-75
2021/06/05 03:00:48;;;;;;;8.78;7.87;;;;;;;16.72;70.34;101126.05;1739767;80;26288;-75
2021/06/05 03:03:20;;;;;;;8.15;7.33;;;;;;;16.76;70.57;101129.47;1732120;80;26422;-75
2021/06/05 03:05:47;;;;;;;10.78;7.60;;;;;;;16.77;70.49;101128.41;1770860;80;27490;-75
2021/06/05 03:08:24;;;;;;;9.45;7.92;;;;;;;16.78;70.56;101126.53;1773476;79;25355;-75
2021/06/05 03:10:52;;;;;;;8.43;7.37;;;;;;;16.78;70.56;101129.24;1765097;80;25875;-74
2021/06/05 03:13:20;;;;;;;10.78;8.00;;;;;;;16.81;70.66;101130.98;1748005;80;25919;-75
2021/06/05 03:15:49;;;;;;;8.33;7.60;;;;;;;16.78;70.75;101132.78;1768595;80;25894;-75
2021/06/05 03:18:20;;;;;;;8.43;6.83;;;;;;;16.67;71.07;101141.56;1743050;80;27713;-75
2021/06/05 03:20:49;;;;;;;8.93;7.20;;;;;;;16.51;70.93;101138.50;1764929;80;25843;-75
2021/06/05 03:23:20;;;;;;;8.90;7.12;;;;;;;16.37;70.84;101133.59;1739388;80;25814;-74
2021/06/05 03:25:47;;;;;;;10.70;7.85;;;;;;;16.37;71.06;101124.14;1768172;80;26363;-75
2021/06/05 03:28:18;;;;;;;13.35;7.47;;;;;;;16.44;71.04;101136.30;1734123;80;25824;-74
2021/06/05 03:30:47;;;;;;;10.95;7.35;;;;;;;16.44;71.19;101152.52;1741929;80;28254;-75
2021/06/05 03:33:14;;;;;;;7.50;6.75;;;;;;;16.33;71.65;101158.05;1766550;80;25892;-75
2021/06/05 03:35:42;;;;;;;8.40;6.58;;;;;;;16.23;71.49;101154.92;1764883;80;25816;-74
2021/06/05 03:38:10;;;;;;;8.40;7.15;;;;;;;16.23;71.44;101147.36;1741333;80;26022;-75
2021/06/05 03:40:39;;;;;;;11.35;7.37;;;;;;;16.31;71.66;101160.64;1718221;80;26159;-75
2021/06/05 03:43:08;;;;;;;8.93;8.03;;;;;;;16.33;71.73;101163.45;1765008;80;28138;-75
2021/06/05 03:45:35;;;;;;;8.68;7.35;;;;;;;16.30;71.89;101156.27;1768205;80;26604;-75
2021/06/05 03:48:04;;;;;;;8.50;7.60;;;;;;;16.35;71.93;101160.53;1747870;80;26103;-75
2021/06/05 03:50:38;;;;;;;8.48;7.20;;;;;;;16.39;72.23;101160.41;1678666;82;26657;-75
2021/06/05 03:53:06;;;;;;;8.30;7.42;;;;;;;16.40;72.53;101165.61;1714131;83;25912;-75
2021/06/05 03:55:33;;;;;;;8.33;7.50;;;;;;;16.37;72.50;101170.09;1691635;83;27516;-75
2021/06/05 03:58:01;;;;;;;9.63;7.97;;;;;;;16.38;72.62;101165.53;1649218;83;25874;-75
2021/06/05 04:00:39;;;;;;;9.63;7.67;;;;;;;16.42;72.45;101173.53;1679976;83;25905;-75
2021/06/05 04:03:07;;;;;;;12.40;7.72;;;;;;;16.43;72.70;101192.75;1693723;82;26508;-75
2021/06/05 04:05:36;;;;;;;8.75;7.58;;;;;;;16.29;73.14;101193.31;1698375;83;25771;-75
2021/06/05 04:08:05;;;;;;;9.63;8.73;;;;;;;16.19;73.19;101189.66;1664850;83;27634;-75
2021/06/05 04:10:34;;;;;;;11.30;8.55;;;;;;;16.12;72.79;101182.06;1706202;82;25924;-75
2021/06/05 04:13:01;;;;;;;15.32;8.10;;;;;;;16.15;73.08;101170.02;1707871;83;25833;-75
2021/06/05 04:15:30;;;;;;;11.05;8.28;;;;;;;16.16;73.06;101168.98;1702696;83;26808;-75
2021/06/05 04:18:11;;;;;;;11.38;9.08;;;;;;;16.17;73.31;101174.17;1685687;80;25959;-75
2021/06/05 04:20:40;;;;;;;9.95;7.92;;;;;;;16.16;73.26;101176.58;1715244;78;27379;-75
2021/06/05 04:23:10;;;;;;;12.50;9.50;;;;;;;16.20;73.29;101179.69;1770958;78;25913;-74
2021/06/05 04:25:37;;;;;;;9.58;8.58;;;;;;;16.25;73.51;101166.90;1772683;79;25887;-75
2021/06/05 04:28:11;;;;;;;10.03;8.15;;;;;;;16.32;73.75;101166.34;1747260;80;27659;-75
2021/06/05 04:30:41;;;;;;;10.75;8.80;;;;;;;16.31;73.35;101180.92;1765951;80;25993;-75
2021/06/05 04:33:10;;;;;;;11.55;9.15;;;;;;;16.27;73.48;101188.63;1770439;78;28422;-75
2021/06/05 04:35:37;;;;;;;11.93;9.15;;;;;;;16.23;73.69;101186.55;1774378;80;25959;-75
2021/06/05 04:38:06;;;;;;;10.70;8.65;;;;;;;16.21;73.65;101178.63;1721364;80;26071;-75
2021/06/05 04:40:37;;;;;;;10.72;8.95;;;;;;;16.23;73.79;101185.20;1715144;80;26545;-75
2021/06/05 04:43:05;;;;;;;13.32;8.53;;;;;;;16.20;73.79;101183.23;1771748;78;25843;-75
2021/06/05 04:45:32;;;;;;;9.98;8.95;;;;;;;16.18;74.02;101183.13;1772163;80;27009;-75
2021/06/05 04:48:00;;;;;;;10.05;9.05;;;;;;;16.17;74.13;101186.85;1717362;80;26456;-75
2021/06/05 04:50:31;;;;;;;9.38;8.48;;;;;;;16.16;74.22;101184.69;1713239;80;25670;-75
2021/06/05 04:52:58;;;;;;;9.83;7.90;;;;;;;16.17;74.40;101184.14;1771774;80;25889;-75
2021/06/05 04:55:25;;;;;;;11.15;8.68;;;;;;;16.16;74.45;101191.45;1764858;80;25966;-75
2021/06/05 04:57:54;;;;;;;10.68;8.08;;;;;;;16.15;74.33;101191.64;1698834;80;27008;-75
2021/06/05 05:00:29;;;;;;;9.48;8.45;;;;;;;16.17;74.44;101194.95;1742652;80;26231;-75
2021/06/05 05:02:57;;;;;;;8.98;7.50;;;;;;;16.18;74.24;101193.94;1771843;80;26416;-75
2021/06/05 05:05:26;;;;;;;8.78;7.70;;;;;;;16.20;74.25;101199.96;1774857;80;25799;-74
2021/06/05 05:07:54;;;;;;;9.70;7.97;;;;;;;16.21;74.38;101195.69;1719911;80;25962;-75
2021/06/05 05:10:27;;;;;;;8.85;7.72;;;;;;;16.21;74.36;101198.91;1723662;80;27406;-75
2021/06/05 05:12:54;;;;;;;9.23;8.23;;;;;;;16.24;74.43;101197.15;1768720;80;26766;-74
2021/06/05 05:15:22;;;;;;;10.40;8.33;;;;;;;16.26;74.28;101195.06;1770562;80;25846;-75
2021/06/05 05:17:50;;;;;;;9.10;7.78;;;;;;;16.30;74.37;101196.30;1691450;80;25816;-75
2021/06/05 05:20:25;;;;;;;9.88;7.67;;;;;;;16.34;74.22;101202.14;1737212;80;25860;-75
2021/06/05 05:22:52;;;;;;;10.88;9.15;;;;;;;16.35;74.27;101197.88;1735927;82;27575;-75
2021/06/05 05:25:20;;;;;;;9.20;8.18;;;;;;;16.37;74.42;101203.90;1764806;80;25846;-75
2021/06/05 05:27:47;;;;;;;9.65;8.70;;;;;;;16.40;74.26;101202.11;1743414;80;25850;-75
2021/06/05 05:30:23;;;;;;;9.60;8.60;;;;;;;16.45;74.48;101203.67;1716954;80;26410;-75
2021/06/05 05:32:50;;;;;;;9.73;8.73;;;;;;;16.51;74.45;101197.45;1771659;80;25795;-75
2021/06/05 05:35:17;;;;;;;9.08;8.18;;;;;;;16.55;74.28;101197.33;1768082;78;27569;-75
2021/06/05 05:37:45;;;;;;;11.60;8.40;;;;;;;16.60;74.30;101194.00;1709339;78;25932;-75
2021/06/05 05:40:14;;;;;;;10.28;8.18;;;;;;;16.63;74.01;101205.77;1743115;80;26523;-75
2021/06/05 05:42:41;;;;;;;12.30;8.53;;;;;;;16.65;74.12;101202.32;1742833;80;26474;-75
2021/06/05 05:45:11;;;;;;;14.13;7.80;;;;;;;16.66;73.75;101202.10;1762802;80;26427;-75
2021/06/05 05:47:38;;;;;;;8.65;7.60;;;;;;;16.70;73.94;101201.98;1720310;80;27494;-75
2021/06/05 05:50:09;;;;;;;11.30;8.03;;;;;;;16.71;74.00;101199.60;1757052;79;25474;-75
2021/06/05 05:52:36;;;;;;;11.33;8.78;;;;;;;16.74;73.79;101197.00;1778136;80;25943;-75
2021/06/05 05:55:06;;;;;;;11.90;8.73;;;;;;;16.78;73.94;101200.94;1770279;80;25853;-75
2021/06/05 05:57:34;;;;;;;9.45;7.90;;;;;;;16.84;73.90;101200.92;1722662;80;26158;-75
2021/06/05 06:00:08;;;;;;;11.25;8.48;;;;;;;16.91;73.99;101203.06;1723805;80;28041;-75
2021/06/05 06:02:37;;;;;;;9.93;7.78;;;;;;;17.00;74.03;101206.91;1768159;79;25885;-75
2021/06/05 06:05:06;;;;;;;10.23;7.85;;;;;;;17.05;73.59;101207.08;1767577;78;25765;-75
2021/06/05 06:07:33;;;;;;;11.12;8.68;;;;;;;17.07;73.19;101206.34;1728159;80;26482;-75
2021/06/05 06:10:00;;;;;;;13.75;7.90;;;;;;;17.11;73.12;101207.05;1691064;80;26477;-75
2021/06/05 06:12:27;;;;;;;11.10;7.60;;;;;;;17.19;73.16;101205.48;1770659;80;27429;-75
2021/06/05 06:14:54;;;;;;;8.80;7.87;;;;;;;17.33;72.77;101204.88;1775207;80;25849;-75
2021/06/05 06:17:21;;;;;;;9.90;7.65;;;;;;;17.43;72.87;101207.94;1684781;80;25920;-76
2021/06/05 06:19:48;;;;;;;9.10;8.20;;;;;;;17.57;72.62;101202.80;1745970;80;26384;-75
2021/06/05 06:22:15;;;;;;;11.22;8.33;;;;;;;17.73;72.65;101203.11;1773672;80;26252;-75
2021/06/05 06:24:42;;;;;;;11.53;7.62;;;;;;;17.90;72.33;101199.33;1719618;80;27703;-75
2021/06/05 06:27:10;;;;;;;10.93;7.67;;;;;;;17.98;71.85;101203.16;1685212;80;25897;-75
2021/06/05 06:29:39;;;;;;;10.93;7.55;;;;;;;18.00;71.86;101198.86;1686482;82;25823;-75
2021/06/05 06:32:07;;;;;;;11.35;7.55;;;;;;;18.00;71.25;101191.56;1771152;80;25799;-75
2021/06/05 06:34:34;;;;;;;7.03;6.00;;;;;;;18.07;71.08;101186.09;1769724;80;25785;-75
2021/06/05 06:37:05;;;;;;;7.70;6.65;;;;;;;18.21;70.89;101181.68;1685833;80;27448;-75
2021/06/05 06:39:33;;;;;;;;;;;;;;;18.34;70.63;101178.84;1731032;80;26590;-75
2021/06/05 06:42:00;;;;;;;10.43;6.62;;;;;;;18.50;70.60;101177.45;1695194;83;25838;-75
2021/06/05 06:44:27;;;;;;;6.90;6.20;;;;;;;18.63;69.97;101180.02;1759654;80;25869;-75
2021/06/05 06:46:54;;;;;;;8.70;6.72;;;;;;;18.72;69.62;101173.25;1742851;80;25790;-75
2021/06/05 06:49:23;;;;;;;7.20;6.45;;;;;;;18.69;68.74;101166.10;1741363;80;27509;-75
2021/06/05 06:51:51;;;;;;;8.23;6.97;;;;;;;18.61;68.87;101167.22;1773266;79;26453;-74
2021/06/05 06:54:19;;;;;;;9.20;6.87;;;;;;;18.61;68.87;101169.09;1717001;80;26467;-75
2021/06/05 06:56:46;;;;;;;9.85;7.37;;;;;;;18.60;68.64;101174.23;1755326;80;26548;-75
2021/06/05 06:59:13;;;;;;;7.53;6.37;;;;;;;18.55;68.37;101170.83;1755262;80;25823;-74
2021/06/05 07:01:40;;;;;;;7.65;6.17;;;;;;;18.53;68.37;101178.37;1740224;80;27230;-75
2021/06/05 07:04:07;;;;;;;9.13;6.47;;;;;;;18.62;68.78;101172.95;1748790;80;25926;-75
2021/06/05 07:06:35;;;;;;;13.00;6.70;;;;;;;18.71;68.23;101178.92;1766250;80;25875;-75
2021/06/05 07:09:04;;;;;;;7.20;6.50;;;;;;;18.73;68.21;101183.07;1773936;80;25934;-74
2021/06/05 07:11:34;;;;;;;9.18;6.30;;;;;;;18.71;67.95;101184.34;1741714;80;25942;-74
2021/06/05 07:14:04;;;;;;;10.70;6.30;;;;;;;18.71;67.82;101183.79;1737577;80;27508;-74
2021/06/05 07:16:34;;;;;;;6.95;6.17;;;;;;;18.70;67.42;101184.86;1788303;77;25891;-74
2021/06/05 07:19:03;;;;;;;9.00;6.17;;;;;;;18.69;67.67;101186.45;1773342;80;25962;-74
2021/06/05 07:21:30;;;;;;;8.73;6.78;;;;;;;18.74;67.99;101183.36;1683437;80;25878;-74
2021/06/05 07:23:57;;;;;;;8.05;6.83;;;;;;;18.93;67.93;101187.72;1723205;80;25706;-74
2021/06/05 07:26:27;;;;;;;7.15;6.30;;;;;;;19.09;67.96;101189.84;1773038;80;27418;-74
2021/06/05 07:29:01;;;;;;;8.45;5.58;;;;;;;19.25;67.62;101189.72;1772636;80;25725;-74
2021/06/05 07:31:33;;;;;;;6.53;5.42;;;;;;;19.39;67.72;101189.05;1753691;80;25306;-74
2021/06/05 07:34:00;;;;;;;6.72;5.95;;;;;;;19.53;67.02;101180.48;1767480;80;25883;-74
2021/06/05 07:36:32;;;;;;;6.42;5.83;;;;;;;19.68;65.51;101184.12;1740787;80;26492;-74
2021/06/05 07:38:59;;;;;;;7.72;5.95;;;;;;;19.74;66.18;101181.31;1775600;80;27422;-75
2021/06/05 07:41:27;;;;;;;8.93;6.15;;;;;;;19.89;65.63;101175.42;1718461;80;25824;-75
2021/06/05 07:43:54;;;;;;;9.38;7.12;;;;;;;20.02;64.50;101177.94;1737551;80;26499;-75
2021/06/05 07:46:21;;;;;;;7.37;6.15;;;;;;;20.09;64.12;101173.75;1771809;80;25919;-77
2021/06/05 07:48:48;;;;;;;7.15;6.40;;;;;;;20.23;63.99;101176.03;1775817;80;25870;-75
2021/06/05 07:51:18;;;;;;;6.42;5.75;;;;;;;20.36;63.59;101175.80;1718169;80;28137;-76
2021/06/05 07:53:47;;;;;;;6.62;5.78;;;;;;;20.46;63.17;101185.58;1758341;80;25922;-76
2021/06/05 07:56:16;;;;;;;9.55;6.22;;;;;;;20.56;62.25;101179.00;1775525;80;25827;-75
2021/06/05 07:58:43;;;;;;;7.92;6.37;;;;;;;20.59;62.30;101178.50;1770155;80;27063;-76
2021/06/05 08:01:11;;;;;;;8.00;6.03;;;;;;;20.67;62.56;101175.97;1724781;80;26002;-75
2021/06/05 08:03:38;;;;;;;8.05;5.92;;;;;;;20.77;61.88;101176.18;1750026;80;28111;-75
2021/06/05 08:06:05;;;;;;;6.83;5.87;;;;;;;20.86;62.04;101172.55;1773777;79;25826;-76
2021/06/05 08:08:32;;;;;;;7.45;5.25;;;;;;;20.89;60.86;101165.28;1745155;80;25296;-76
2021/06/05 08:10:59;;;;;;;8.03;5.53;;;;;;;20.98;61.62;101168.73;1726964;80;26507;-76
2021/06/05 08:13:26;;;;;;;5.97;5.37;;;;;;;21.03;60.30;101169.41;1740639;80;26168;-76
2021/06/05 08:15:53;;;;;;;7.30;5.45;;;;;;;21.01;60.29;101164.70;1771571;80;27409;-76
2021/06/05 08:18:22;;;;;;;5.33;4.83;;;;;;;21.03;60.35;101161.23;1780525;80;25933;-76
2021/06/05 08:20:57;;;;;;;7.08;5.47;;;;;;;21.15;60.27;101161.48;1751917;80;25641;-76
2021/06/05 08:23:28;;;;;;;6.83;5.60;;;;;;;21.26;60.87;101158.42;1746359;80;26469;-75
2021/06/05 08:25:56;;;;;;;6.92;5.78;;;;;;;21.36;60.67;101155.91;1795236;78;25815;-76
2021/06/05 08:28:25;;;;;;;6.33;5.75;;;;;;;21.37;60.69;101163.83;1775215;78;27560;-76
2021/06/05 08:30:56;;;;;;;6.65;5.65;;;;;;;21.36;60.06;101155.91;1753604;80;26308;-76
2021/06/05 08:33:23;;;;;;;;;;;;;;;21.32;60.37;101158.27;1744799;80;25925;-76
2021/06/05 08:35:51;;;;;;;7.40;5.35;;;;;;;21.39;60.69;101154.88;1772635;80;25883;-76
2021/06/05 08:38:21;;;;;;;7.45;5.72;;;;;;;21.31;59.88;101155.80;1777734;80;25788;-76
2021/06/05 08:40:56;;;;;;;6.62;6.03;;;;;;;21.34;60.53;101154.77;1782410;78;27586;-76
2021/06/05 08:43:47;;;;;;;7.55;5.40;;;;;;;21.49;60.24;101153.69;1741801;80;25794;-76
2021/06/05 08:46:19;;;;;;;10.60;5.33;;;;;;;21.58;60.09;101145.94;1772150;80;26202;-76
2021/06/05 08:48:46;;;;;;;5.85;5.08;;;;;;;21.60;60.31;101155.26;1693678;81;25898;-76
2021/06/05 08:51:49;;;;;;;6.37;5.72;;;;;;;21.60;60.32;101145.16;1694524;82;25977;-76
2021/06/05 08:54:43;;;;;;;6.50;5.83;;;;;;;21.59;60.50;101158.52;1686730;82;28242;-76
2021/06/05 08:57:33;;;;;;;6.62;5.47;;;;;;;21.56;59.29;101150.81;1715738;82;25858;-76
2021/06/05 09:00:15;;;;;;;7.28;5.28;;;;;;;21.59;59.56;101150.86;1690445;82;25963;-76
2021/06/05 09:02:46;;;;;;;8.05;5.50;;;;;;;21.53;58.85;101145.03;1745920;80;26425;-75
2021/06/05 09:05:16;;;;;;;;;;;;;;;21.53;58.69;101141.78;1701925;82;26006;-76
2021/06/05 09:07:44;;;;;;;5.47;4.97;;;;;;;21.53;59.38;101146.67;1729148;82;27578;-76
2021/06/05 09:10:16;;;;;;;5.75;5.25;;;;;;;21.56;58.68;101148.61;1664172;82;25818;-75
2021/06/05 09:12:43;;;;;;;5.37;4.87;;;;;;;21.61;58.55;101141.38;1703336;82;25931;-76
2021/06/05 09:15:21;;;;;;;5.87;5.00;;;;;;;21.66;58.43;101146.92;1712240;82;26508;-76
2021/06/05 09:17:54;;;;;;;8.28;4.70;;;;;;;21.75;58.93;101145.98;1714903;82;26578;-76
2021/06/05 09:20:39;;;;;;;6.58;5.12;;;;;;;21.83;57.71;101146.44;1687986;83;27447;-76
2021/06/05 09:23:38;;;;;;;5.87;4.97;;;;;;;21.90;57.47;101138.89;1714150;83;26209;-76
2021/06/05 09:26:28;;;;;;;8.88;4.35;;;;;;;21.86;56.86;101145.09;1655675;83;26439;-76
2021/06/05 09:29:17;;;;;;;5.35;4.78;;;;;;;21.84;56.88;101141.78;1722205;81;26368;-75
2021/06/05 09:32:11;;;;;;;5.22;4.37;;;;;;;21.84;57.98;101141.78;1644851;83;25997;-76
2021/06/05 09:34:46;;;;;;;6.75;4.08;;;;;;;21.96;57.43;101138.45;1687911;83;28299;-76
2021/06/05 09:37:38;;;;;;;4.72;4.17;;;;;;;22.00;55.22;101126.80;1695721;83;25496;-76
2021/06/05 09:40:30;;;;;;;5.37;4.20;;;;;;;22.04;56.62;101130.68;1714115;82;25840;-76
2021/06/05 09:43:11;;;;;;;5.03;4.28;;;;;;;22.02;55.39;101127.91;1690300;83;25881;-76
2021/06/05 09:45:42;;;;;;;4.50;3.65;;;;;;;22.10;55.65;101119.30;1706069;83;25490;-76
2021/06/05 09:48:35;;;;;;;5.25;3.85;;;;;;;22.18;55.15;101122.95;1713573;83;27504;-76
2021/06/05 09:51:06;;;;;;;5.10;3.47;;;;;;;22.20;54.49;101116.18;1718084;83;25960;-76
2021/06/05 09:53:38;;;;;;;4.37;3.87;;;;;;;22.16;53.70;101113.67;1681070;83;26759;-76
2021/06/05 09:56:16;;;;;;;5.80;4.30;;;;;;;22.18;55.20;101115.60;1712523;83;26438;-76
2021/06/05 09:58:46;;;;;;;4.92;3.95;;;;;;;22.24;55.23;101111.03;1682832;83;26714;-76
2021/06/05 10:01:21;;;;;;;6.50;4.12;;;;;;;22.42;55.23;101105.30;1707570;83;27573;-76
2021/06/05 10:03:50;;;;;;;4.03;3.02;;;;;;;22.50;53.67;101096.66;1685761;83;25993;-76
2021/06/05 10:06:23;;;;;;;4.60;3.45;;;;;;;22.58;54.25;101096.78;1692784;83;25811;-76
2021/06/05 10:08:50;;;;;;;4.08;3.20;;;;;;;22.52;52.48;101107.36;1708600;83;25826;-76
2021/06/05 10:11:39;;;;;;;5.28;3.83;;;;;;;22.43;52.64;101102.04;1712208;82;25888;-75
2021/06/05 10:14:20;;;;;;;4.00;3.60;;;;;;;22.43;53.27;101099.31;1696754;83;27625;-76
2021/06/05 10:16:59;;;;;;;;;;;;;;;22.50;53.26;101089.84;1722149;81;25962;-76
2021/06/05 10:19:40;;;;;;;4.42;3.45;;;;;;;22.49;52.36;101096.39;1725420;82;25814;-75
2021/06/05 10:22:08;;;;;;;4.40;3.58;;;;;;;22.35;52.02;101088.83;1701995;81;25776;-76
2021/06/05 10:24:56;;;;;;;3.83;3.42;;;;;;;22.40;52.50;101096.54;1661565;83;26019;-76
2021/06/05 10:27:30;;;;;;;5.58;2.70;;;;;;;22.53;52.56;101083.89;1679138;83;28142;-76
2021/06/05 10:30:05;;;;;;;7.50;3.30;;;;;;;22.68;52.20;101082.75;1724543;81;26514;-76
2021/06/05 10:32:38;;;;;;;4.33;3.27;;;;;;;22.76;52.20;101080.92;1720411;80;25826;-76
2021/06/05 10:35:25;;;;;;;3.20;2.90;;;;;;;22.87;51.71;101077.77;1685639;83;25949;-76
2021/06/05 10:37:57;;;;;;;5.20;2.83;;;;;;;23.02;52.21;101079.30;1738241;80;25897;-76
2021/06/05 10:40:27;;;;;;;4.58;3.02;;;;;;;23.22;52.06;101080.90;1770078;80;27461;-76
2021/06/05 10:42:55;;;;;;;6.42;2.95;;;;;;;23.33;50.52;101077.19;1763598;80;25746;-76
2021/06/05 10:45:33;;;;;;;5.33;3.10;;;;;;;23.29;50.54;101074.66;1720367;80;25386;-76
2021/06/05 10:48:05;;;;;;;4.40;3.27;;;;;;;23.34;49.85;101069.81;1770387;80;26467;-76
2021/06/05 10:50:42;;;;;;;4.65;2.72;;;;;;;23.43;50.60;101073.73;1768671;80;25930;-76
2021/06/05 10:53:26;;;;;;;3.50;2.70;;;;;;;23.55;48.86;101075.75;1773364;80;27663;-76
2021/06/05 10:56:16;;;;;;;5.22;2.40;;;;;;;23.55;48.48;101068.38;1737956;80;25919;-76
2021/06/05 10:58:52;;;;;;;4.97;2.75;;;;;;;23.58;47.89;101070.60;1773704;79;26418;-76
2021/06/05 11:01:45;;;;;;;3.72;2.55;;;;;;;23.58;47.09;101067.03;1711733;82;25843;-76
2021/06/05 11:04:34;;;;;;;4.00;2.52;;;;;;;23.63;48.72;101061.05;1772193;80;25715;-76
2021/06/05 11:07:15;;;;;;;3.40;3.10;;;;;;;23.80;47.65;101060.93;1745894;81;27139;-76
2021/06/05 11:09:53;;;;;;;5.03;2.52;;;;;;;23.97;48.42;101058.03;1741052;80;26191;-76
2021/06/05 11:12:28;;;;;;;3.67;2.33;;;;;;;24.05;46.95;101066.59;1732697;80;25838;-76
2021/06/05 11:14:56;;;;;;;2.58;1.90;;;;;;;23.89;45.67;101063.43;1741671;80;25838;-76
2021/06/05 11:17:39;;;;;;;5.08;2.00;;;;;;;23.65;44.66;101059.44;1742522;80;25915;-76
2021/06/05 11:20:20;;;;;;;2.83;2.40;;;;;;;23.47;43.40;101070.23;1773795;80;27953;-75
2021/06/05 11:23:00;;;;;;;2.75;2.17;;;;;;;23.28;44.55;101064.83;1769594;79;25872;-76
2021/06/05 11:25:47;;;;;;;3.10;2.47;;;;;;;23.32;45.32;101061.02;1788800;79;26608;-76
2021/06/05 11:28:29;;;;;;;3.12;2.47;;;;;;;23.52;47.13;101053.84;1735997;80;25971;-76
2021/06/05 11:30:56;;;;;;;2.83;2.62;;;;;;;23.82;46.38;101050.55;1766596;80;25690;-77
2021/06/05 11:33:43;;;;;;;3.33;2.50;;;;;;;24.03;46.59;101056.43;1773041;80;28191;-76
2021/06/05 11:36:43;;;;;;;5.75;2.87;;;;;;;24.23;46.48;101051.09;1742769;80;25799;-76
2021/06/05 11:39:21;;;;;;;3.00;2.58;;;;;;;24.29;45.38;101056.06;1756617;80;26294;-76
2021/06/05 11:41:52;;;;;;;3.15;2.60;;;;;;;24.16;45.00;101051.89;1770507;80;26500;-76
2021/06/05 11:44:25;;;;;;;2.87;2.30;;;;;;;24.10;44.63;101051.56;1771776;80;25787;-76
2021/06/05 11:47:03;;;;;;;3.33;2.65;;;;;;;24.20;44.60;101045.33;1739387;80;27465;-76
2021/06/05 11:49:47;;;;;;;3.87;2.55;;;;;;;24.32;44.82;101045.93;1772435;80;26755;-77